Terminal Aerodrome Forecast
Issued by NWS

Home | Current Version | Previous Version | Text Only | Print | Product List | Glossary On
Versions: 1 2 3 4 5 6 7 8 9 10 11 12 13 14 15 16 17 18 19 20
000
FTUS42 KFFC 190500
TAFRYY
TAF
KRYY 190520Z 1906/2006 04011KT 6SM -RA SCT008 BKN012
      TEMPO 1908/1912 BKN008
     FM191200 04014G24KT 6SM -RA BKN015
     FM192200 05011G20KT P6SM BKN020
      AMD NOT SKED TIL 191200=

USA.gov is the U.S. government's official web portal to all federal, state and local government web resources and services.